Capitol Logistics 324




KRIV
March Air Reserve Base
Riverside, California
PHNL
Daniel K Inouye International Airport
Honolulu, Hawaii

Activity Log

Date Flight Route Aircraft Duration
12/11/2019 CPX324 SKYES4 OCN BEFIN C1316 DINTY R576 DENNS MAGGI3 B763 6h 00m
02/05/2019 CPX324 SKYES3 OCN SXC VTU RZS C1176 DINTY R576 DENNS KAENA2 B763 6h 08m

Route Details

Aircraft Information
Primary: Boeing 767-300BDSF
Backup: Boeing 757-200SF
Route Data
Distance: 2277nm
Duration: 6h 09m
Recm'd Route: SKYES3 OCN MALIT C1177 FICKY R578 FOMAS R578 DEREC MAKEN LNY JULLE5
Origin Wx: KRIV 172358Z AUTO 31012KT 10SM CLR 25/08 A2988 RMK AO2 SLP111 T02490075 10266 20198 56010
Dest. Wx: PHNL 180053Z 04011G18KT 10SM FEW026 SCT042 SCT065 28/16 A2999 RMK AO2 SLP155 T02780156
Notes: